Time;durP1;ratioP1;P1;durP2;ratioP2;P2;SDS_P1;SDS_P2;PMS_P1;PMS_P2;Temp;Humidity;BMP_temperature;BMP_pressure;BME280_temperature;BME280_humidity;BME280_pressure;Samples;Min_cycle;Max_cycle;Signal;HPM_P1;HPM_P2
2023/08/15 00:02:21;;;;;;;3.65;2.78;;;18.80;99.90;;;;;;5057134;28;20053;-70
2023/08/15 00:04:47;;;;;;;3.80;2.92;;;18.70;99.90;;;;;;5057139;28;20060;-70
2023/08/15 00:07:13;;;;;;;4.35;2.70;;;18.70;99.90;;;;;;5056930;28;20049;-70
2023/08/15 00:09:38;;;;;;;3.03;2.50;;;18.70;99.90;;;;;;5056959;28;20041;-70
2023/08/15 00:12:04;;;;;;;3.75;2.80;;;18.70;99.90;;;;;;5056774;28;20527;-70
2023/08/15 00:14:30;;;;;;;5.15;3.05;;;18.60;99.90;;;;;;5056847;28;20383;-70
2023/08/15 00:16:55;;;;;;;4.40;3.30;;;18.60;99.90;;;;;;5057066;28;20040;-70
2023/08/15 00:19:21;;;;;;;5.07;3.28;;;18.50;99.90;;;;;;5056877;28;20049;-70
2023/08/15 00:21:47;;;;;;;6.53;3.50;;;18.60;99.90;;;;;;5057656;28;20458;-70
2023/08/15 00:24:12;;;;;;;5.00;3.30;;;18.60;99.90;;;;;;5057297;28;20048;-70
2023/08/15 00:26:38;;;;;;;4.30;2.65;;;18.60;99.90;;;;;;5056693;28;20044;-70
2023/08/15 00:29:04;;;;;;;6.65;3.50;;;18.60;99.90;;;;;;5057136;28;20496;-70
2023/08/15 00:31:29;;;;;;;4.75;3.25;;;18.50;99.90;;;;;;5056473;28;20045;-70
2023/08/15 00:33:55;;;;;;;4.20;3.05;;;18.40;99.90;;;;;;5056647;28;20086;-70
2023/08/15 00:36:21;;;;;;;3.92;2.97;;;18.30;99.90;;;;;;5038765;28;20044;-70
2023/08/15 00:38:46;;;;;;;6.60;3.80;;;18.20;99.90;;;;;;5038725;28;20047;-70
2023/08/15 00:41:12;;;;;;;5.75;3.60;;;18.20;99.90;;;;;;5056425;28;20067;-70
2023/08/15 00:43:37;;;;;;;4.40;3.70;;;18.30;99.90;;;;;;5038855;28;20087;-70
2023/08/15 00:46:05;;;;;;;6.28;4.20;;;18.20;99.90;;;;;;5038821;28;20091;-70
2023/08/15 00:48:32;;;;;;;6.65;4.03;;;18.20;99.90;;;;;;5055143;28;20563;-70
2023/08/15 00:51:00;;;;;;;6.75;3.60;;;18.20;99.90;;;;;;5056248;28;20067;-70
2023/08/15 00:53:27;;;;;;;6.80;4.68;;;18.10;99.90;;;;;;5055853;28;20052;-70
2023/08/15 00:55:55;;;;;;;7.25;4.38;;;18.20;99.90;;;;;;5056094;28;20482;-70
2023/08/15 00:58:21;;;;;;;7.15;4.70;;;18.30;99.90;;;;;;5056547;28;20045;-70
2023/08/15 01:00:47;;;;;;;6.13;3.90;;;18.30;99.90;;;;;;5056087;28;20090;-70
2023/08/15 01:03:13;;;;;;;7.60;4.90;;;18.40;99.90;;;;;;5037586;28;20060;-70
2023/08/15 01:05:41;;;;;;;7.47;5.00;;;18.40;99.90;;;;;;5056486;28;20053;-70
2023/08/15 01:08:07;;;;;;;7.25;5.40;;;18.40;99.90;;;;;;5055903;28;20047;-70
2023/08/15 01:10:33;;;;;;;10.27;5.18;;;18.50;99.90;;;;;;5055926;28;20049;-70
2023/08/15 01:13:09;;;;;;;9.88;5.55;;;18.70;99.90;;;;;;5055804;28;20175;-70
2023/08/15 01:15:37;;;;;;;;;;;18.70;99.90;;;;;;5056915;28;20044;-70
2023/08/15 01:18:14;;;;;;;7.60;5.47;;;18.80;99.90;;;;;;5055801;28;19924;-70
2023/08/15 01:20:41;;;;;;;8.52;5.65;;;18.70;99.90;;;;;;5056291;28;20088;-70
2023/08/15 01:23:08;;;;;;;7.00;4.53;;;18.70;99.90;;;;;;5038129;28;20063;-70
2023/08/15 01:25:42;;;;;;;9.07;5.70;;;18.80;99.90;;;;;;5055650;28;20052;-70
2023/08/15 01:28:15;;;;;;;7.35;5.18;;;18.70;99.90;;;;;;5056160;28;20049;-70
2023/08/15 01:30:48;;;;;;;8.27;5.40;;;18.70;99.90;;;;;;5055125;28;20494;-70
2023/08/15 01:33:28;;;;;;;8.15;5.30;;;18.80;99.90;;;;;;5055753;28;20084;-71
2023/08/15 01:36:02;;;;;;;8.40;5.68;;;18.80;99.90;;;;;;5054847;28;20053;-70
2023/08/15 01:38:47;;;;;;;9.02;5.40;;;18.80;99.90;;;;;;5055747;28;20045;-70
2023/08/15 01:41:18;;;;;;;7.70;5.35;;;18.80;99.90;;;;;;5055712;28;20487;-70
2023/08/15 01:43:44;;;;;;;7.57;4.78;;;18.80;99.90;;;;;;5055786;28;20048;-70
2023/08/15 01:46:11;;;;;;;7.47;5.60;;;18.90;99.90;;;;;;5055202;28;20053;-70
2023/08/15 01:48:41;;;;;;;7.63;5.85;;;18.90;99.90;;;;;;5054871;28;20505;-70
2023/08/15 01:51:07;;;;;;;9.30;5.90;;;18.90;99.90;;;;;;5055149;28;20056;-70
2023/08/15 01:53:37;;;;;;;9.63;6.30;;;18.90;99.90;;;;;;5054422;28;20064;-70
2023/08/15 01:56:03;;;;;;;8.63;6.03;;;18.90;99.90;;;;;;5055029;28;20052;-70
2023/08/15 01:58:28;;;;;;;7.88;6.75;;;18.80;99.90;;;;;;5055498;28;20052;-70
2023/08/15 02:00:54;;;;;;;7.88;6.15;;;18.80;99.90;;;;;;5054925;28;20044;-70
2023/08/15 02:03:20;;;;;;;8.60;6.68;;;18.90;99.90;;;;;;5054400;28;20148;-70
2023/08/15 02:05:45;;;;;;;9.93;6.75;;;18.90;99.90;;;;;;5055706;28;20144;-70
2023/08/15 02:08:11;;;;;;;8.15;6.72;;;19.00;99.90;;;;;;5055292;28;20056;-70
2023/08/15 02:10:37;;;;;;;10.02;7.13;;;18.90;99.90;;;;;;5037053;28;20444;-71
2023/08/15 02:13:03;;;;;;;9.43;6.90;;;18.90;99.90;;;;;;5037306;28;20095;-70
2023/08/15 02:15:28;;;;;;;8.98;6.43;;;18.90;99.90;;;;;;5054240;28;20107;-70
2023/08/15 02:17:54;;;;;;;8.45;5.90;;;18.90;99.90;;;;;;5037299;28;20049;-70
2023/08/15 02:20:20;;;;;;;7.00;6.00;;;18.90;99.90;;;;;;5053606;28;20478;-70
2023/08/15 02:22:45;;;;;;;8.85;6.45;;;18.90;99.90;;;;;;5054448;28;20114;-70
2023/08/15 02:25:11;;;;;;;10.98;7.22;;;18.90;99.90;;;;;;5054371;28;20045;-70
2023/08/15 02:27:37;;;;;;;10.57;7.18;;;18.90;99.90;;;;;;5054483;28;20052;-70
2023/08/15 02:30:04;;;;;;;10.45;7.43;;;18.90;99.90;;;;;;5054452;28;20040;-70
2023/08/15 02:32:30;;;;;;;8.05;7.20;;;19.00;99.90;;;;;;5054224;28;20052;-70
2023/08/15 02:34:56;;;;;;;8.63;7.18;;;19.00;99.90;;;;;;5054281;28;20045;-70
2023/08/15 02:37:22;;;;;;;8.95;7.03;;;19.00;99.90;;;;;;5054586;28;20045;-70
2023/08/15 02:39:48;;;;;;;9.15;7.32;;;19.00;99.90;;;;;;5054756;28;20049;-70
2023/08/15 02:42:13;;;;;;;10.50;7.75;;;19.00;99.90;;;;;;5054147;28;20500;-70
2023/08/15 02:44:39;;;;;;;10.05;7.15;;;19.00;99.90;;;;;;5054165;28;20048;-70
2023/08/15 02:47:05;;;;;;;10.50;7.53;;;19.10;99.90;;;;;;5054163;28;20049;-70
2023/08/15 02:49:30;;;;;;;10.18;7.95;;;19.20;99.90;;;;;;5037346;28;20452;-70
2023/08/15 02:51:56;;;;;;;10.18;7.80;;;19.10;99.90;;;;;;5054179;28;20512;-70
2023/08/15 02:54:22;;;;;;;11.40;7.82;;;19.10;99.90;;;;;;5054262;28;20428;-70
2023/08/15 02:56:48;;;;;;;9.80;7.65;;;19.20;99.90;;;;;;5054262;28;20044;-70
2023/08/15 02:59:13;;;;;;;9.32;7.90;;;19.20;99.90;;;;;;5054208;28;20102;-70
2023/08/15 03:01:39;;;;;;;10.65;7.57;;;19.20;99.90;;;;;;5053575;28;20041;-70
2023/08/15 03:04:09;;;;;;;10.57;7.68;;;19.20;99.90;;;;;;5054202;28;20131;-70
2023/08/15 03:06:35;;;;;;;10.38;8.00;;;19.30;99.90;;;;;;5053751;28;20110;-70
2023/08/15 03:09:01;;;;;;;10.32;7.80;;;19.20;99.90;;;;;;5053752;28;20064;-70
2023/08/15 03:11:29;;;;;;;11.45;7.72;;;19.20;99.90;;;;;;5053331;28;20049;-70
2023/08/15 03:13:55;;;;;;;8.85;7.20;;;19.20;99.90;;;;;;5053963;28;20122;-70
2023/08/15 03:16:21;;;;;;;9.55;8.05;;;19.20;99.90;;;;;;5053593;28;20533;-70
2023/08/15 03:18:47;;;;;;;10.98;8.27;;;19.20;99.90;;;;;;5052700;28;20406;-70
2023/08/15 03:21:13;;;;;;;11.93;7.88;;;19.20;99.90;;;;;;5054403;28;20052;-70
2023/08/15 03:23:39;;;;;;;10.82;8.13;;;19.20;99.90;;;;;;5053491;28;20551;-70
2023/08/15 03:26:05;;;;;;;10.48;8.23;;;19.10;99.90;;;;;;5053484;28;20049;-70
2023/08/15 03:28:32;;;;;;;10.77;7.72;;;19.10;99.90;;;;;;5053442;28;20048;-70
2023/08/15 03:31:02;;;;;;;9.43;8.15;;;19.10;99.90;;;;;;5054225;28;20430;-71
2023/08/15 03:33:28;;;;;;;11.35;8.32;;;19.10;99.90;;;;;;5053436;28;20049;-70
2023/08/15 03:35:53;;;;;;;11.63;8.38;;;19.10;99.90;;;;;;5053360;28;20037;-70
2023/08/15 03:38:21;;;;;;;9.43;7.43;;;19.10;99.90;;;;;;5053165;28;20060;-70
2023/08/15 03:40:49;;;;;;;10.40;7.75;;;19.20;99.90;;;;;;5052994;28;20498;-70
2023/08/15 03:43:15;;;;;;;10.60;8.15;;;19.30;99.90;;;;;;5053335;28;20128;-70
2023/08/15 03:45:41;;;;;;;9.35;7.72;;;19.20;99.90;;;;;;5053423;28;20132;-70
2023/08/15 03:48:08;;;;;;;11.43;7.43;;;19.30;99.90;;;;;;5052383;28;20056;-70
2023/08/15 03:50:38;;;;;;;9.45;7.18;;;19.30;99.90;;;;;;5053373;28;20432;-70
2023/08/15 03:53:04;;;;;;;9.52;7.15;;;19.30;99.90;;;;;;5053518;28;20433;-71
2023/08/15 03:55:31;;;;;;;8.32;7.30;;;19.30;99.90;;;;;;5052972;28;20508;-70
2023/08/15 03:57:56;;;;;;;9.70;7.00;;;19.30;99.90;;;;;;5053577;28;20047;-71
2023/08/15 04:00:22;;;;;;;10.52;7.22;;;19.30;99.90;;;;;;5053724;28;20044;-70
2023/08/15 04:02:48;;;;;;;10.18;7.55;;;19.20;99.90;;;;;;5035282;28;20152;-70
2023/08/15 04:05:14;;;;;;;10.05;7.00;;;19.20;99.90;;;;;;5053101;28;20567;-71
2023/08/15 04:07:40;;;;;;;10.35;7.45;;;19.30;99.90;;;;;;5053098;28;20045;-71
2023/08/15 04:10:06;;;;;;;10.23;7.55;;;19.30;99.90;;;;;;5053088;28;20470;-70
2023/08/15 04:12:35;;;;;;;9.60;7.43;;;19.30;99.90;;;;;;5035242;28;20095;-70
2023/08/15 04:15:01;;;;;;;9.52;7.55;;;19.30;99.90;;;;;;5053104;28;20053;-71
2023/08/15 04:17:27;;;;;;;8.70;6.88;;;19.30;99.90;;;;;;5035016;28;20040;-71
2023/08/15 04:19:53;;;;;;;11.93;7.68;;;19.30;99.90;;;;;;5052950;28;20081;-70
2023/08/15 04:22:18;;;;;;;9.18;7.40;;;19.30;99.90;;;;;;5053523;28;20045;-71
2023/08/15 04:24:44;;;;;;;9.48;7.32;;;19.30;99.90;;;;;;5056644;28;20045;-70
2023/08/15 04:27:10;;;;;;;10.55;8.38;;;19.30;99.90;;;;;;5056699;28;20504;-70
2023/08/15 04:29:36;;;;;;;10.95;7.82;;;19.30;99.90;;;;;;5056632;28;20067;-71
2023/08/15 04:32:01;;;;;;;10.88;8.50;;;19.30;99.90;;;;;;5056388;28;20048;-71
2023/08/15 04:34:27;;;;;;;10.32;8.98;;;19.30;99.90;;;;;;5057031;28;20045;-70
2023/08/15 04:36:53;;;;;;;15.68;9.15;;;19.30;99.90;;;;;;5057280;28;20044;-70
2023/08/15 04:39:19;;;;;;;13.45;8.60;;;19.30;99.90;;;;;;5056622;28;20470;-71
2023/08/15 04:41:45;;;;;;;11.88;8.35;;;19.30;99.90;;;;;;5056476;28;20473;-71
2023/08/15 04:44:10;;;;;;;11.18;8.13;;;19.30;99.90;;;;;;5056444;28;20049;-70
2023/08/15 04:46:36;;;;;;;13.60;8.32;;;19.20;99.90;;;;;;5056951;28;20052;-70
2023/08/15 04:49:02;;;;;;;11.82;8.20;;;19.20;99.90;;;;;;5038493;28;20060;-70
2023/08/15 04:51:28;;;;;;;12.88;8.25;;;19.20;99.90;;;;;;5055380;28;20452;-71
2023/08/15 04:53:54;;;;;;;11.65;8.05;;;19.10;99.90;;;;;;5056429;28;20124;-71
2023/08/15 04:56:21;;;;;;;11.48;8.35;;;19.10;99.90;;;;;;5056995;28;20084;-70
2023/08/15 04:58:47;;;;;;;10.82;8.13;;;19.10;99.90;;;;;;5056197;28;20053;-70
2023/08/15 05:01:13;;;;;;;9.45;7.40;;;19.10;99.90;;;;;;5056086;28;20367;-71
2023/08/15 05:03:39;;;;;;;10.27;7.97;;;19.00;99.90;;;;;;5055925;28;20064;-71
2023/08/15 05:06:04;;;;;;;12.38;8.85;;;19.00;99.90;;;;;;5056047;28;20052;-70
2023/08/15 05:08:30;;;;;;;12.77;8.43;;;19.00;99.90;;;;;;5055968;28;20045;-70
2023/08/15 05:10:56;;;;;;;13.18;9.00;;;19.00;99.90;;;;;;5055975;28;20047;-70
2023/08/15 05:13:22;;;;;;;12.50;8.48;;;19.00;99.90;;;;;;5055888;28;20163;-70
2023/08/15 05:15:47;;;;;;;10.98;8.40;;;19.00;99.90;;;;;;5038542;28;20045;-70
2023/08/15 05:18:17;;;;;;;11.68;9.20;;;19.00;99.90;;;;;;5055773;28;20564;-70
2023/08/15 05:20:45;;;;;;;12.85;8.55;;;19.00;99.90;;;;;;5055726;28;20080;-70
2023/08/15 05:23:11;;;;;;;13.40;9.18;;;19.10;99.90;;;;;;5056440;28;20392;-71
2023/08/15 05:25:36;;;;;;;12.95;9.25;;;19.10;99.90;;;;;;5055660;28;20049;-70
2023/08/15 05:28:05;;;;;;;12.10;9.25;;;19.10;99.90;;;;;;5056168;28;20088;-70
2023/08/15 05:30:34;;;;;;;13.70;9.80;;;19.10;99.90;;;;;;5055531;28;20041;-71
2023/08/15 05:33:00;;;;;;;13.77;9.10;;;19.10;99.90;;;;;;5055622;28;20044;-71
2023/08/15 05:35:26;;;;;;;13.52;9.68;;;19.10;99.90;;;;;;5054728;28;20429;-70
2023/08/15 05:37:53;;;;;;;11.63;8.52;;;19.10;99.90;;;;;;5037905;28;20052;-71
2023/08/15 05:40:18;;;;;;;13.23;9.00;;;19.10;99.90;;;;;;5054470;28;20053;-71
2023/08/15 05:42:44;;;;;;;11.50;8.80;;;19.10;99.90;;;;;;5055728;28;20059;-71
2023/08/15 05:45:10;;;;;;;11.57;8.25;;;19.10;99.90;;;;;;5055268;28;20071;-71
2023/08/15 05:47:36;;;;;;;11.00;8.52;;;19.10;99.90;;;;;;5055185;28;20048;-71
2023/08/15 05:50:02;;;;;;;13.70;8.48;;;19.10;99.90;;;;;;5055485;28;20036;-71
2023/08/15 05:52:28;;;;;;;12.80;8.52;;;19.00;99.90;;;;;;5055148;28;20544;-70
2023/08/15 05:54:55;;;;;;;13.88;8.25;;;19.00;99.90;;;;;;5055044;28;20063;-70
2023/08/15 05:57:21;;;;;;;12.05;8.45;;;19.00;99.90;;;;;;5055062;28;20041;-71
2023/08/15 05:59:46;;;;;;;10.95;8.07;;;19.00;99.90;;;;;;5055803;28;20041;-71
2023/08/15 06:02:13;;;;;;;11.85;8.23;;;18.90;99.90;;;;;;5054634;28;20501;-71
2023/08/15 06:04:39;;;;;;;10.55;7.30;;;18.90;99.90;;;;;;5055512;28;20053;-71
2023/08/15 06:07:05;;;;;;;10.18;7.80;;;18.90;99.90;;;;;;5055717;28;20118;-70
2023/08/15 06:09:30;;;;;;;8.35;5.75;;;18.80;99.90;;;;;;5055215;28;20044;-71
2023/08/15 06:11:56;;;;;;;7.28;5.72;;;18.80;99.90;;;;;;5054843;28;20048;-71
2023/08/15 06:14:25;;;;;;;10.57;5.85;;;18.80;99.90;;;;;;5054674;28;20044;-71
2023/08/15 06:16:51;;;;;;;8.95;5.82;;;18.80;99.90;;;;;;5054857;28;20485;-69
2023/08/15 06:19:18;;;;;;;8.45;5.32;;;18.70;99.90;;;;;;5036753;28;20048;-69
2023/08/15 06:21:43;;;;;;;7.57;5.53;;;18.70;99.90;;;;;;5054202;28;20482;-69
2023/08/15 06:24:11;;;;;;;7.05;4.30;;;18.70;99.90;;;;;;5037734;28;20045;-69
2023/08/15 06:26:37;;;;;;;7.07;5.30;;;18.60;99.90;;;;;;5054951;28;20469;-69
2023/08/15 06:29:04;;;;;;;7.97;5.25;;;18.60;99.90;;;;;;5054499;28;20382;-69
2023/08/15 06:31:31;;;;;;;8.50;5.30;;;18.60;99.90;;;;;;5054454;28;20044;-69
2023/08/15 06:33:57;;;;;;;7.18;5.25;;;18.50;99.90;;;;;;5053892;28;20064;-69
2023/08/15 06:36:22;;;;;;;8.18;5.63;;;18.50;99.90;;;;;;5054200;28;20138;-69
2023/08/15 06:38:51;;;;;;;9.15;5.78;;;18.40;99.90;;;;;;5054223;28;20049;-70
2023/08/15 06:41:17;;;;;;;8.65;6.10;;;18.40;99.90;;;;;;5036914;28;20099;-70
2023/08/15 06:43:46;;;;;;;12.50;6.00;;;18.40;99.90;;;;;;5054224;28;20076;-69
2023/08/15 06:46:12;;;;;;;8.63;5.65;;;18.40;99.90;;;;;;5053437;28;20119;-69
2023/08/15 06:48:38;;;;;;;9.52;6.18;;;18.50;99.90;;;;;;5054468;28;20084;-70
2023/08/15 06:51:04;;;;;;;8.60;5.55;;;18.50;99.90;;;;;;5054341;28;20095;-69
2023/08/15 06:53:34;;;;;;;9.60;5.45;;;18.60;99.90;;;;;;5036295;28;20478;-69
2023/08/15 06:56:00;;;;;;;7.50;4.65;;;18.70;99.90;;;;;;5053924;28;20045;-70
2023/08/15 06:58:26;;;;;;;7.15;4.97;;;18.80;99.90;;;;;;5054690;28;20041;-71
2023/08/15 07:00:52;;;;;;;8.73;4.53;;;19.00;99.90;;;;;;5054434;28;20159;-70
2023/08/15 07:03:18;;;;;;;6.18;4.35;;;19.10;99.90;;;;;;5053259;28;20553;-70
2023/08/15 07:05:45;;;;;;;7.70;4.15;;;19.10;99.90;;;;;;5036104;28;20128;-69
2023/08/15 07:08:13;;;;;;;8.05;3.75;;;19.30;99.90;;;;;;5036257;28;20420;-69
2023/08/15 07:10:39;;;;;;;6.80;3.50;;;19.30;99.90;;;;;;5052783;28;20040;-72
2023/08/15 07:13:05;;;;;;;7.97;3.47;;;19.40;99.90;;;;;;5036480;28;20051;-69
2023/08/15 07:15:31;;;;;;;6.97;3.28;;;19.50;99.90;;;;;;5054187;28;20389;-70
2023/08/15 07:17:57;;;;;;;5.85;2.90;;;19.60;99.90;;;;;;5053598;28;20057;-69
2023/08/15 07:20:24;;;;;;;5.00;2.92;;;19.80;99.90;;;;;;5036888;28;20105;-70
2023/08/15 07:22:50;;;;;;;5.35;3.42;;;19.80;99.90;;;;;;5053518;28;20044;-69
2023/08/15 07:25:15;;;;;;;5.80;3.78;;;19.90;99.90;;;;;;5052988;28;20045;-70
2023/08/15 07:27:41;;;;;;;6.97;3.05;;;19.90;99.90;;;;;;5053915;28;20045;-73
2023/08/15 07:30:08;;;;;;;6.07;3.20;;;20.00;99.90;;;;;;5053869;28;20041;-70
2023/08/15 07:32:36;;;;;;;5.75;3.20;;;20.10;99.90;;;;;;5053313;28;20045;-70
2023/08/15 07:35:03;;;;;;;6.88;2.78;;;20.10;99.90;;;;;;5053304;28;20088;-70
2023/08/15 07:37:29;;;;;;;7.38;2.85;;;20.20;99.90;;;;;;5053361;28;20057;-72
2023/08/15 07:40:07;;;;;;;5.93;3.13;;;20.30;99.90;;;;;;5036038;28;20055;-71
2023/08/15 07:42:34;;;;;;;7.00;2.70;;;20.40;99.90;;;;;;5053043;28;20080;-71
2023/08/15 07:45:00;;;;;;;4.70;2.65;;;20.40;99.90;;;;;;5053289;28;20088;-71
2023/08/15 07:47:25;;;;;;;6.22;2.90;;;20.40;99.90;;;;;;5035548;28;20107;-71
2023/08/15 07:50:18;;;;;;;5.55;2.78;;;20.40;99.90;;;;;;5052910;28;20049;-71
2023/08/15 07:52:44;;;;;;;7.43;3.05;;;20.50;99.90;;;;;;5025742;28;20053;-71
2023/08/15 07:55:10;;;;;;;6.47;3.00;;;20.50;99.90;;;;;;5053140;28;20047;-71
2023/08/15 07:57:37;;;;;;;6.35;2.72;;;20.60;99.90;;;;;;5055140;28;20366;-70
2023/08/15 08:00:04;;;;;;;7.00;2.85;;;20.60;99.90;;;;;;5056262;28;20137;-74
2023/08/15 08:02:29;;;;;;;5.25;2.28;;;20.70;99.90;;;;;;5056897;28;20132;-71
2023/08/15 08:04:55;;;;;;;5.82;2.22;;;20.80;99.90;;;;;;5055860;28;20084;-71
2023/08/15 08:07:21;;;;;;;7.47;2.60;;;20.90;99.90;;;;;;5057002;28;20044;-70
2023/08/15 08:09:46;;;;;;;4.15;1.98;;;20.90;99.90;;;;;;5056837;28;20123;-71
2023/08/15 08:12:12;;;;;;;5.55;2.35;;;20.90;99.90;;;;;;5056510;28;20107;-72
2023/08/15 08:14:38;;;;;;;5.68;2.28;;;21.00;99.90;;;;;;5056877;28;20174;-71
2023/08/15 08:17:04;;;;;;;4.82;2.17;;;21.00;99.90;;;;;;5038903;28;20080;-69
2023/08/15 08:19:30;;;;;;;4.22;2.28;;;21.10;99.90;;;;;;5055571;28;20052;-70
2023/08/15 08:21:55;;;;;;;5.45;3.13;;;21.20;99.90;;;;;;5057458;28;20075;-70
2023/08/15 08:24:21;;;;;;;4.80;2.55;;;21.30;99.90;;;;;;5039057;28;20128;-70
2023/08/15 08:26:47;;;;;;;5.22;2.65;;;21.30;99.90;;;;;;5039873;28;20045;-70
2023/08/15 08:29:13;;;;;;;3.85;2.17;;;21.30;99.90;;;;;;5056536;28;20045;-72
2023/08/15 08:31:39;;;;;;;4.88;2.13;;;21.20;99.90;;;;;;5039153;28;20056;-70
2023/08/15 08:34:13;;;;;;;4.80;2.75;;;21.10;99.90;;;;;;5038592;28;20053;-73
2023/08/15 08:36:42;;;;;;;3.75;2.10;;;21.10;99.90;;;;;;5055415;28;20103;-71
2023/08/15 08:39:08;;;;;;;3.47;2.15;;;21.10;99.90;;;;;;5056368;28;20473;-71
2023/08/15 08:41:36;;;;;;;7.05;2.75;;;21.10;99.90;;;;;;5056528;28;20095;-71
2023/08/15 08:44:02;;;;;;;5.32;2.40;;;21.10;99.90;;;;;;5056754;28;20048;-70
2023/08/15 08:46:29;;;;;;;3.80;2.03;;;21.20;99.90;;;;;;5056138;28;20057;-71
2023/08/15 08:48:58;;;;;;;5.10;2.30;;;21.20;99.90;;;;;;5056455;28;20421;-72
2023/08/15 08:51:25;;;;;;;5.93;2.55;;;21.10;99.90;;;;;;5038135;28;20056;-71
2023/08/15 08:53:53;;;;;;;4.82;3.47;;;21.00;99.90;;;;;;5055887;28;20068;-71
2023/08/15 08:56:22;;;;;;;4.95;3.28;;;20.90;99.90;;;;;;5055848;28;20061;-73
2023/08/15 08:59:15;;;;;;;5.40;3.28;;;20.90;99.90;;;;;;5055512;28;20055;-70
2023/08/15 09:01:41;;;;;;;5.60;3.17;;;20.90;99.90;;;;;;5055363;28;20057;-70
2023/08/15 09:04:07;;;;;;;5.80;3.20;;;20.70;99.90;;;;;;5056765;28;20056;-71
2023/08/15 09:06:33;;;;;;;4.68;3.05;;;20.70;99.90;;;;;;5055761;28;20047;-73
2023/08/15 09:08:59;;;;;;;8.40;3.08;;;20.80;99.90;;;;;;5054611;28;20045;-73
2023/08/15 09:11:35;;;;;;;3.92;3.10;;;20.80;99.90;;;;;;5055589;28;20049;-72
2023/08/15 09:14:05;;;;;;;5.28;2.72;;;20.80;99.90;;;;;;5055305;28;20049;-70
2023/08/15 09:16:32;;;;;;;6.97;3.67;;;20.60;99.90;;;;;;5056302;28;20063;-70
2023/08/15 09:19:04;;;;;;;6.32;3.45;;;20.60;99.90;;;;;;5055755;28;20490;-72
2023/08/15 09:21:30;;;;;;;7.03;5.03;;;20.60;99.90;;;;;;5037431;28;20190;-70
2023/08/15 09:24:00;;;;;;;5.68;3.80;;;20.60;99.90;;;;;;5055171;28;20128;-71
2023/08/15 09:26:26;;;;;;;5.75;4.38;;;20.70;99.90;;;;;;5055419;28;20053;-71
2023/08/15 09:28:52;;;;;;;7.68;4.93;;;20.70;99.90;;;;;;5055362;28;20067;-70
2023/08/15 09:31:18;;;;;;;7.60;4.55;;;20.90;99.90;;;;;;5055194;28;20049;-71
2023/08/15 09:33:44;;;;;;;6.50;4.70;;;21.10;99.90;;;;;;5055034;28;20045;-71
2023/08/15 09:36:10;;;;;;;6.85;5.07;;;21.20;99.90;;;;;;5054890;28;20057;-71
2023/08/15 09:38:39;;;;;;;8.68;5.20;;;21.30;99.90;;;;;;5055157;28;20148;-71
2023/08/15 09:41:06;;;;;;;7.63;5.65;;;21.40;99.90;;;;;;5054968;28;20076;-72
2023/08/15 09:43:32;;;;;;;8.18;5.35;;;21.60;99.90;;;;;;5054691;28;20478;-71
2023/08/15 09:46:02;;;;;;;6.57;5.45;;;21.70;99.90;;;;;;5055011;28;20064;-71
2023/08/15 09:48:31;;;;;;;6.68;5.60;;;21.70;99.90;;;;;;5054961;28;20063;-71
2023/08/15 09:50:57;;;;;;;7.32;5.30;;;21.50;99.90;;;;;;5054753;28;20080;-72
2023/08/15 09:53:23;;;;;;;7.63;5.03;;;21.40;99.90;;;;;;5055111;28;20079;-71
2023/08/15 09:55:50;;;;;;;7.68;5.28;;;21.10;99.90;;;;;;5055941;28;20049;-72
2023/08/15 09:58:16;;;;;;;9.35;4.90;;;21.00;99.90;;;;;;5054695;28;20049;-71
2023/08/15 10:00:43;;;;;;;5.72;4.50;;;20.90;99.90;;;;;;5053673;28;20120;-71
2023/08/15 10:03:30;;;;;;;4.75;3.58;;;20.80;99.90;;;;;;5036583;28;20143;-71
2023/08/15 10:05:57;;;;;;;5.65;3.60;;;20.70;99.90;;;;;;5055238;28;20060;-71
2023/08/15 10:08:24;;;;;;;5.97;3.35;;;20.80;99.90;;;;;;5055412;28;20072;-71
2023/08/15 10:10:51;;;;;;;5.20;3.40;;;20.90;99.90;;;;;;5054593;28;20053;-71
2023/08/15 10:13:20;;;;;;;4.47;3.13;;;21.00;99.90;;;;;;5055129;28;20509;-71
2023/08/15 10:15:47;;;;;;;6.38;4.20;;;21.00;99.90;;;;;;5054251;28;20041;-72
2023/08/15 10:18:13;;;;;;;4.25;2.72;;;21.00;99.90;;;;;;5055163;28;20045;-72
2023/08/15 10:20:39;;;;;;;6.60;2.80;;;21.00;99.90;;;;;;5053550;28;20485;-71
2023/08/15 10:23:10;;;;;;;6.22;2.85;;;21.00;99.90;;;;;;5054715;28;20374;-70
2023/08/15 10:25:38;;;;;;;5.15;2.47;;;21.10;99.90;;;;;;5054285;28;20053;-70
2023/08/15 10:28:10;;;;;;;4.07;2.50;;;21.20;99.90;;;;;;5054287;28;20041;-70
2023/08/15 10:30:41;;;;;;;4.55;2.38;;;21.30;99.90;;;;;;5037415;28;20057;-70
2023/08/15 10:33:18;;;;;;;6.43;2.20;;;21.30;99.90;;;;;;5036379;28;20037;-69
2023/08/15 10:35:53;;;;;;;5.30;2.10;;;21.50;99.90;;;;;;5053872;28;20059;-70
2023/08/15 10:38:26;;;;;;;4.78;2.53;;;21.70;99.90;;;;;;5053995;28;20045;-70
2023/08/15 10:40:59;;;;;;;4.88;2.38;;;21.80;99.90;;;;;;5037257;28;20048;-69
2023/08/15 10:43:25;;;;;;;4.55;2.25;;;21.80;99.90;;;;;;5054719;28;20258;-70
2023/08/15 10:45:52;;;;;;;4.22;2.15;;;21.90;99.90;;;;;;5053873;28;20052;-70
2023/08/15 10:48:50;;;;;;;5.35;2.38;;;22.20;99.90;;;;;;5053875;28;20041;-70
2023/08/15 10:51:23;;;;;;;6.28;2.25;;;22.40;99.90;;;;;;5036484;28;20041;-70
2023/08/15 10:53:54;;;;;;;3.30;1.75;;;22.40;99.90;;;;;;5053756;28;20048;-70
2023/08/15 10:56:22;;;;;;;5.50;1.77;;;22.40;99.90;;;;;;5036269;28;20494;-71
2023/08/15 10:58:49;;;;;;;3.40;1.40;;;22.40;99.90;;;;;;5036723;28;20497;-70
2023/08/15 11:01:19;;;;;;;3.33;1.42;;;22.40;99.90;;;;;;5054358;28;20382;-70
2023/08/15 11:03:52;;;;;;;2.90;2.55;;;22.30;99.90;;;;;;5053473;28;20130;-71
2023/08/15 11:06:18;;;;;;;3.03;1.23;;;22.30;99.90;;;;;;5053579;28;20052;-69
2023/08/15 11:08:47;;;;;;;2.78;1.40;;;22.10;99.90;;;;;;5036750;28;20110;-70
2023/08/15 11:11:12;;;;;;;3.42;1.40;;;22.00;99.90;;;;;;5035656;28;20051;-71
2023/08/15 11:13:43;;;;;;;3.75;1.70;;;21.90;99.90;;;;;;5053465;28;20049;-70
2023/08/15 11:16:09;;;;;;;4.05;1.63;;;21.90;99.90;;;;;;5053764;28;20102;-70
2023/08/15 11:18:36;;;;;;;3.42;1.75;;;21.90;99.90;;;;;;5053443;28;20053;-70
2023/08/15 11:21:03;;;;;;;4.32;1.90;;;21.90;99.90;;;;;;5053287;28;20052;-70
2023/08/15 11:23:29;;;;;;;5.43;1.80;;;21.90;99.90;;;;;;5053639;28;20405;-70
2023/08/15 11:26:04;;;;;;;3.15;1.50;;;22.00;99.90;;;;;;5035999;28;20433;-71
2023/08/15 11:28:31;;;;;;;5.22;1.80;;;22.10;99.90;;;;;;5035284;28;20053;-70
2023/08/15 11:31:10;;;;;;;4.28;1.80;;;22.30;99.90;;;;;;5053806;28;20131;-71
2023/08/15 11:33:36;;;;;;;4.55;1.90;;;22.50;99.90;;;;;;5052126;28;20103;-71
2023/08/15 11:36:05;;;;;;;4.95;1.90;;;22.60;99.90;;;;;;5053194;28;20486;-72
2023/08/15 11:38:32;;;;;;;3.55;1.45;;;22.70;99.90;;;;;;5053168;28;20097;-73
2023/08/15 11:40:59;;;;;;;5.28;1.90;;;22.80;99.90;;;;;;5035380;28;20487;-73
2023/08/15 11:43:25;;;;;;;3.67;1.67;;;22.90;99.90;;;;;;5053052;28;20087;-72
2023/08/15 11:45:51;;;;;;;4.88;1.70;;;22.90;99.90;;;;;;5035281;28;20056;-73
2023/08/15 11:48:18;;;;;;;4.63;1.80;;;22.80;99.90;;;;;;5053060;28;20053;-72
2023/08/15 11:50:44;;;;;;;3.55;1.85;;;22.60;99.90;;;;;;5053030;28;20064;-72
2023/08/15 11:53:14;;;;;;;5.00;1.90;;;22.60;99.90;;;;;;5035401;28;20060;-71
2023/08/15 11:55:41;;;;;;;5.18;1.83;;;22.50;99.90;;;;;;5052383;28;20056;-73
2023/08/15 11:58:32;;;;;;;4.63;1.90;;;22.50;99.90;;;;;;5035474;28;20136;-70
2023/08/15 12:01:03;;;;;;;3.38;1.60;;;22.70;99.90;;;;;;5052990;28;20064;-70
2023/08/15 12:03:30;;;;;;;2.83;1.65;;;22.80;99.90;;;;;;5052568;28;20053;-71
2023/08/15 12:05:58;;;;;;;4.72;1.85;;;22.80;99.90;;;;;;5052886;28;20135;-72
2023/08/15 12:08:29;;;;;;;6.13;2.13;;;22.90;99.90;;;;;;5035120;28;20128;-71
2023/08/15 12:10:56;;;;;;;5.47;2.10;;;23.10;99.90;;;;;;5035902;28;20079;-72
2023/08/15 12:13:48;;;;;;;5.28;2.08;;;23.10;99.90;;;;;;5053194;28;20181;-71
2023/08/15 12:16:13;;;;;;;3.75;1.90;;;23.00;99.90;;;;;;5030693;28;20386;-71
2023/08/15 12:18:39;;;;;;;4.63;1.98;;;23.00;99.90;;;;;;5052823;28;20052;-72
2023/08/15 12:21:05;;;;;;;4.47;2.08;;;23.00;99.90;;;;;;5052739;28;20076;-72
2023/08/15 12:23:31;;;;;;;5.85;2.20;;;23.20;99.90;;;;;;5052398;28;20049;-71
2023/08/15 12:25:56;;;;;;;3.78;1.80;;;23.20;99.90;;;;;;5053499;28;20048;-69
2023/08/15 12:28:22;;;;;;;3.60;1.80;;;23.40;99.90;;;;;;5052861;28;20094;-71
2023/08/15 12:30:48;;;;;;;4.13;2.25;;;23.50;99.90;;;;;;5052519;28;20131;-72
2023/08/15 12:33:14;;;;;;;3.72;2.00;;;23.40;99.90;;;;;;5052913;28;20426;-72
2023/08/15 12:35:40;;;;;;;4.10;2.00;;;23.40;99.90;;;;;;5052748;28;20132;-72
2023/08/15 12:38:05;;;;;;;4.10;2.30;;;23.30;99.90;;;;;;5052476;28;20552;-71
2023/08/15 12:40:31;;;;;;;5.18;2.20;;;23.30;99.90;;;;;;5035245;28;20040;-70
2023/08/15 12:42:58;;;;;;;5.00;1.80;;;23.20;99.90;;;;;;5052950;28;20103;-71
2023/08/15 12:45:24;;;;;;;5.25;2.20;;;23.10;99.90;;;;;;5054686;28;20049;-71
2023/08/15 12:47:49;;;;;;;3.88;2.20;;;22.90;99.90;;;;;;5056057;28;20136;-72